Time;durP1;ratioP1;P1;durP2;ratioP2;P2;SDS_P1;SDS_P2;PMS_P1;PMS_P2;Temp;Humidity;BMP_temperature;BMP_pressure;BME280_temperature;BME280_humidity;BME280_pressure;Samples;Min_cycle;Max_cycle;Signal;HPM_P1;HPM_P2
2021/07/20 00:01:32;;;;;;;19.77;15.88;;;;;;;21.20;71.79;95781.34;5053041;28;20048;-71
2021/07/20 00:03:58;;;;;;;20.10;16.73;;;;;;;21.17;72.17;95782.47;5053721;28;20029;-71
2021/07/20 00:06:24;;;;;;;26.05;19.98;;;;;;;21.21;71.86;95786.53;5053747;28;20029;-69
2021/07/20 00:08:49;;;;;;;27.95;17.58;;;;;;;21.20;72.39;95787.50;5053644;28;20027;-71
2021/07/20 00:11:15;;;;;;;21.02;18.50;;;;;;;21.23;71.39;95786.38;5053769;28;20028;-71
2021/07/20 00:13:41;;;;;;;21.70;15.82;;;;;;;21.21;71.20;95786.53;5053748;28;20068;-73
2021/07/20 00:16:07;;;;;;;19.90;17.30;;;;;;;21.04;73.53;95787.25;5053635;28;20057;-73
2021/07/20 00:18:35;;;;;;;22.60;18.42;;;;;;;20.89;74.38;95781.50;5053577;28;20029;-70
2021/07/20 00:21:05;;;;;;;22.15;19.05;;;;;;;20.89;74.33;95776.19;5053529;28;20029;-72
2021/07/20 00:23:32;;;;;;;27.25;21.38;;;;;;;20.87;74.31;95776.34;5053462;28;20096;-72
2021/07/20 00:25:58;;;;;;;22.30;17.95;;;;;;;20.84;74.88;95774.78;5053532;28;20032;-72
2021/07/20 00:28:24;;;;;;;28.20;18.30;;;;;;;20.85;74.89;95780.94;5053420;28;20086;-72
2021/07/20 00:30:50;;;;;;;24.02;19.27;;;;;;;20.79;75.51;95778.84;5053473;28;20029;-69
2021/07/20 00:33:15;;;;;;;23.10;17.60;;;;;;;20.83;74.74;95777.59;5053341;28;20115;-69
2021/07/20 00:35:41;;;;;;;23.27;18.15;;;;;;;20.89;75.06;95774.34;5053291;28;20053;-73
2021/07/20 00:38:07;;;;;;;27.45;22.83;;;;;;;20.93;76.13;95774.97;5053312;28;20063;-71
2021/07/20 00:40:33;;;;;;;23.73;19.38;;;;;;;20.92;76.41;95774.09;5053181;28;20052;-72
2021/07/20 00:43:01;;;;;;;26.33;19.85;;;;;;;20.95;76.08;95775.66;5053129;28;20025;-69
2021/07/20 00:45:27;;;;;;;27.90;21.75;;;;;;;21.00;75.37;95775.22;5053083;28;20029;-71
2021/07/20 00:47:53;;;;;;;18.92;16.15;;;;;;;20.93;74.93;95772.31;5053106;28;20028;-68
2021/07/20 00:50:23;;;;;;;20.52;16.48;;;;;;;21.00;74.54;95767.25;5053188;28;20025;-72
2021/07/20 00:52:49;;;;;;;25.33;18.90;;;;;;;21.01;73.85;95768.94;5052873;28;20044;-70
2021/07/20 00:55:15;;;;;;;18.10;16.08;;;;;;;21.06;73.58;95767.53;5052974;28;20033;-71
2021/07/20 00:57:42;;;;;;;17.27;15.55;;;;;;;21.10;73.55;95764.59;5052941;28;20025;-71
2021/07/20 01:00:12;;;;;;;17.55;15.35;;;;;;;21.12;73.21;95767.91;5053081;28;20013;-69
2021/07/20 01:02:37;;;;;;;22.77;16.37;;;;;;;21.10;72.69;95767.25;5053065;28;20418;-70
2021/07/20 01:05:09;;;;;;;18.23;15.23;;;;;;;21.13;72.39;95766.97;5052834;28;20079;-69
2021/07/20 01:07:36;;;;;;;21.90;14.98;;;;;;;21.12;72.22;95767.91;5052887;28;20463;-69
2021/07/20 01:10:06;;;;;;;20.67;14.48;;;;;;;21.17;72.02;95768.34;5052962;28;20029;-69
2021/07/20 01:12:35;;;;;;;19.47;15.73;;;;;;;21.13;71.38;95756.31;5055566;28;20029;-74
2021/07/20 01:15:02;;;;;;;14.90;13.40;;;;;;;21.08;71.25;95757.56;5057073;28;20075;-71
2021/07/20 01:17:30;;;;;;;15.10;13.50;;;;;;;21.07;71.12;95755.09;5057020;28;20017;-73
2021/07/20 01:19:55;;;;;;;18.67;13.15;;;;;;;21.01;71.10;95755.66;5055772;28;20098;-69
2021/07/20 01:22:28;;;;;;;15.75;13.63;;;;;;;21.05;71.30;95760.53;5057029;28;20021;-68
2021/07/20 01:24:54;;;;;;;15.27;13.15;;;;;;;21.08;70.97;95765.53;5056870;28;20025;-69
2021/07/20 01:27:20;;;;;;;16.75;13.77;;;;;;;21.05;70.56;95757.03;5056943;28;20095;-71
2021/07/20 01:29:48;;;;;;;16.35;13.52;;;;;;;21.08;70.58;95767.38;5056725;28;20037;-74
2021/07/20 01:32:14;;;;;;;14.43;12.75;;;;;;;21.08;70.71;95770.84;5056710;28;20356;-72
2021/07/20 01:34:41;;;;;;;15.48;12.30;;;;;;;20.97;70.62;95771.03;5056653;28;20023;-70
2021/07/20 01:37:08;;;;;;;18.42;13.75;;;;;;;20.91;70.95;95779.56;5056618;28;20025;-71
2021/07/20 01:39:35;;;;;;;17.92;12.90;;;;;;;20.87;71.08;95779.00;5056525;28;20028;-72
2021/07/20 01:42:03;;;;;;;18.70;13.20;;;;;;;20.89;70.74;95787.66;5056512;28;20589;-71
2021/07/20 01:44:29;;;;;;;15.52;12.23;;;;;;;20.85;70.80;95786.25;5056342;28;20028;-72
2021/07/20 01:46:56;;;;;;;16.50;12.23;;;;;;;20.86;70.83;95785.28;5056481;28;20083;-72
2021/07/20 01:49:24;;;;;;;15.57;12.13;;;;;;;20.90;70.69;95785.88;5055341;28;20028;-71
2021/07/20 01:51:50;;;;;;;14.63;12.38;;;;;;;20.95;70.55;95787.13;5056386;28;20466;-68
2021/07/20 01:54:16;;;;;;;15.50;12.20;;;;;;;20.94;70.47;95784.59;5056255;28;20025;-70
2021/07/20 01:56:42;;;;;;;18.95;12.88;;;;;;;20.91;70.16;95788.38;5056277;28;20380;-71
2021/07/20 01:59:10;;;;;;;17.50;14.40;;;;;;;20.91;70.00;95780.41;5056253;28;20057;-72
2021/07/20 02:01:49;;;;;;;14.23;11.98;;;;;;;20.91;69.91;95787.53;5056213;28;20032;-73
2021/07/20 02:09:36;;;;;;;14.88;12.38;;;;;;;20.86;69.40;95779.97;5056337;28;20040;-72
2021/07/20 02:12:15;;;;;;;16.05;10.75;;;;;;;20.88;68.97;95785.13;5054686;28;20387;-74
2021/07/20 02:14:45;;;;;;;11.75;10.45;;;;;;;20.70;69.58;95786.69;5056000;28;20051;-72
2021/07/20 02:17:13;;;;;;;17.50;13.93;;;;;;;20.61;69.87;95792.00;5055965;28;20518;-72
2021/07/20 02:19:47;;;;;;;16.15;11.30;;;;;;;20.61;70.20;95799.97;5055800;28;20036;-69
2021/07/20 02:22:18;;;;;;;18.10;11.70;;;;;;;20.53;70.15;95798.84;5055833;28;20490;-70
2021/07/20 02:24:46;;;;;;;14.40;11.95;;;;;;;20.56;69.75;95793.25;5054862;28;20048;-68
2021/07/20 02:27:12;;;;;;;16.05;11.73;;;;;;;20.55;69.64;95798.69;5055761;28;20021;-71
2021/07/20 02:29:39;;;;;;;17.50;11.18;;;;;;;20.48;70.03;95805.56;5055617;28;20098;-73
2021/07/20 02:32:06;;;;;;;12.88;11.35;;;;;;;20.49;69.96;95805.41;5055577;28;20013;-68
2021/07/20 02:34:36;;;;;;;13.50;11.23;;;;;;;20.48;69.89;95803.75;5055512;28;20025;-73
2021/07/20 02:37:02;;;;;;;14.75;11.60;;;;;;;20.42;69.88;95805.13;5054220;28;20040;-68
2021/07/20 02:39:29;;;;;;;12.30;10.55;;;;;;;20.37;69.74;95814.47;5055514;28;20033;-73
2021/07/20 02:41:55;;;;;;;11.30;10.10;;;;;;;20.34;69.81;95810.28;5055358;28;20491;-72
2021/07/20 02:44:23;;;;;;;13.70;10.88;;;;;;;20.25;70.08;95801.31;5055463;28;20041;-70
2021/07/20 02:46:49;;;;;;;14.45;12.02;;;;;;;20.11;69.97;95799.91;5055455;28;20027;-71
2021/07/20 02:49:16;;;;;;;14.40;10.52;;;;;;;19.99;70.61;95809.78;5055428;28;20536;-70
2021/07/20 02:51:45;;;;;;;12.13;9.60;;;;;;;19.90;71.06;95805.28;5055396;28;20070;-72
2021/07/20 02:54:11;;;;;;;11.23;9.65;;;;;;;19.89;70.97;95801.75;5054957;28;20072;-71
2021/07/20 02:56:40;;;;;;;12.10;10.70;;;;;;;19.88;71.35;95808.06;5055218;28;20021;-70
2021/07/20 02:59:07;;;;;;;10.63;9.52;;;;;;;19.88;71.08;95804.56;5055100;28;20025;-70
2021/07/20 03:01:36;;;;;;;11.32;9.80;;;;;;;19.83;70.98;95799.66;5055172;28;20035;-69
2021/07/20 03:04:02;;;;;;;12.57;11.27;;;;;;;19.81;71.52;95809.56;5055105;28;20025;-71
2021/07/20 03:06:29;;;;;;;12.88;10.13;;;;;;;19.88;70.93;95809.84;5054980;28;20482;-71
2021/07/20 03:08:59;;;;;;;12.30;9.82;;;;;;;19.93;70.97;95818.28;5054984;28;20098;-70
2021/07/20 03:11:39;;;;;;;12.30;10.68;;;;;;;19.94;70.91;95812.84;5054819;28;20036;-73
2021/07/20 03:14:13;;;;;;;11.20;9.98;;;;;;;19.95;70.67;95814.50;5054932;28;20033;-71
2021/07/20 03:16:41;;;;;;;9.50;8.50;;;;;;;19.92;70.77;95819.22;5054853;28;20021;-71
2021/07/20 03:19:09;;;;;;;12.13;9.52;;;;;;;19.97;70.32;95819.69;5054698;28;20025;-70
2021/07/20 03:21:38;;;;;;;10.10;8.90;;;;;;;19.98;70.51;95816.03;5054681;28;20486;-69
2021/07/20 03:24:05;;;;;;;12.00;9.50;;;;;;;20.03;70.17;95824.47;5054625;28;20064;-69
2021/07/20 03:26:30;;;;;;;11.57;9.02;;;;;;;20.06;69.90;95824.22;5054610;28;20021;-70
2021/07/20 03:28:58;;;;;;;10.55;9.40;;;;;;;20.07;69.84;95822.38;5054635;28;20034;-70
2021/07/20 03:31:24;;;;;;;11.80;10.50;;;;;;;20.07;69.86;95825.88;5054532;28;20025;-71
2021/07/20 03:33:51;;;;;;;9.95;8.95;;;;;;;20.11;69.95;95829.13;5054260;28;20545;-69
2021/07/20 03:36:17;;;;;;;11.02;9.63;;;;;;;20.11;69.95;95836.22;5054270;28;20497;-70
2021/07/20 03:38:44;;;;;;;10.35;9.32;;;;;;;20.15;70.08;95840.28;5054311;28;20463;-71
2021/07/20 03:41:11;;;;;;;12.52;8.52;;;;;;;20.18;69.89;95846.19;5054212;28;20108;-74
2021/07/20 03:43:37;;;;;;;10.20;8.35;;;;;;;20.20;69.69;95844.22;5054120;28;20050;-69
2021/07/20 03:46:04;;;;;;;10.00;8.93;;;;;;;20.26;69.60;95852.63;5054372;28;20032;-69
2021/07/20 03:48:30;;;;;;;11.77;9.63;;;;;;;20.29;69.62;95852.34;5054268;28;20021;-69
2021/07/20 03:50:57;;;;;;;10.80;7.95;;;;;;;20.33;69.65;95853.75;5054123;28;20034;-71
2021/07/20 03:53:26;;;;;;;15.63;8.30;;;;;;;20.31;69.64;95861.84;5053815;28;20041;-70
2021/07/20 03:55:55;;;;;;;9.82;8.32;;;;;;;20.27;69.82;95860.47;5053950;28;20550;-68
2021/07/20 03:58:22;;;;;;;9.30;8.40;;;;;;;20.30;69.70;95857.53;5053873;28;20036;-68
2021/07/20 04:00:50;;;;;;;11.23;7.97;;;;;;;20.35;69.82;95856.28;5053867;28;20100;-69
2021/07/20 04:03:24;;;;;;;8.25;7.45;;;;;;;20.40;69.81;95856.69;5053860;28;20017;-70
2021/07/20 04:05:54;;;;;;;9.20;7.55;;;;;;;20.44;69.41;95864.25;5053845;28;20035;-70
2021/07/20 04:08:21;;;;;;;8.75;7.07;;;;;;;20.45;69.71;95867.75;5053644;28;20025;-72
2021/07/20 04:10:48;;;;;;;8.30;7.40;;;;;;;20.54;69.18;95868.75;5053682;28;20021;-71
2021/07/20 04:13:15;;;;;;;7.88;7.10;;;;;;;20.69;68.98;95866.53;5053691;28;20025;-72
2021/07/20 04:15:54;;;;;;;9.02;6.75;;;;;;;20.89;68.60;95861.25;5053664;28;20032;-72
2021/07/20 04:18:21;;;;;;;6.55;5.95;;;;;;;20.93;67.92;95866.16;5053653;28;20025;-70
2021/07/20 04:20:47;;;;;;;8.57;6.07;;;;;;;21.03;67.73;95868.81;5053659;28;20037;-72
2021/07/20 04:23:15;;;;;;;9.45;7.72;;;;;;;21.20;67.99;95879.72;5053428;28;20021;-70
2021/07/20 04:25:43;;;;;;;7.10;6.38;;;;;;;21.29;66.99;95876.22;5053607;28;20056;-70
2021/07/20 04:28:09;;;;;;;7.22;6.15;;;;;;;21.37;67.59;95875.50;5053615;28;20021;-71
2021/07/20 04:30:40;;;;;;;8.55;6.45;;;;;;;21.37;67.34;95874.69;5053353;28;20024;-71
2021/07/20 04:33:06;;;;;;;7.00;6.30;;;;;;;21.36;67.32;95873.81;5053390;28;20067;-71
2021/07/20 04:35:32;;;;;;;6.78;6.18;;;;;;;21.43;67.29;95880.25;5053372;28;20090;-71
2021/07/20 04:38:00;;;;;;;8.63;6.40;;;;;;;21.63;66.65;95869.56;5053266;28;20025;-71
2021/07/20 04:40:27;;;;;;;6.65;5.80;;;;;;;21.79;65.62;95871.66;5053242;28;20032;-70
2021/07/20 04:42:53;;;;;;;6.82;6.13;;;;;;;21.93;65.83;95864.19;5053194;28;20111;-72
2021/07/20 04:45:19;;;;;;;8.70;5.93;;;;;;;22.24;65.19;95868.41;5053077;28;20478;-70
2021/07/20 04:47:45;;;;;;;13.65;6.10;;;;;;;22.69;63.66;95867.59;5052480;28;20100;-72
2021/07/20 04:50:13;;;;;;;6.95;5.95;;;;;;;23.21;63.02;95875.91;5053143;28;20082;-69
2021/07/20 04:52:40;;;;;;;5.43;4.93;;;;;;;23.80;60.64;95880.69;5052859;28;20106;-69
2021/07/20 04:55:07;;;;;;;6.57;5.90;;;;;;;24.20;59.47;95875.72;5051793;28;20060;-71
2021/07/20 04:57:35;;;;;;;6.55;5.85;;;;;;;24.38;58.22;95868.63;5053033;28;20053;-70
2021/07/20 05:00:03;;;;;;;5.40;4.90;;;;;;;24.79;56.72;95875.91;5052998;28;20029;-70
2021/07/20 05:02:30;;;;;;;5.55;4.90;;;;;;;25.07;55.60;95879.16;5053091;28;20025;-70
2021/07/20 05:04:57;;;;;;;6.05;5.15;;;;;;;25.23;55.18;95882.88;5052938;28;20029;-71
2021/07/20 05:07:24;;;;;;;6.50;5.88;;;;;;;25.47;55.50;95879.31;5052928;28;20033;-68
2021/07/20 05:09:51;;;;;;;6.63;5.97;;;;;;;25.68;54.28;95887.88;5052936;28;20471;-68
2021/07/20 05:12:18;;;;;;;8.27;6.07;;;;;;;25.74;53.52;95880.00;5052945;28;20037;-69
2021/07/20 05:14:44;;;;;;;7.85;6.22;;;;;;;25.87;53.21;95884.00;5053049;28;20028;-70
2021/07/20 05:17:10;;;;;;;6.22;5.63;;;;;;;25.99;52.28;95879.97;5052775;28;20017;-69
2021/07/20 05:19:37;;;;;;;9.25;5.78;;;;;;;26.11;53.13;95880.44;5052714;28;20051;-70
2021/07/20 05:22:04;;;;;;;6.97;5.85;;;;;;;26.35;52.67;95886.72;5052814;28;20025;-69
2021/07/20 05:24:33;;;;;;;6.03;5.43;;;;;;;26.49;52.22;95901.22;5052749;28;20024;-69
2021/07/20 05:27:00;;;;;;;10.05;6.20;;;;;;;26.69;51.76;95895.44;5052773;28;20096;-69
2021/07/20 05:29:26;;;;;;;10.25;6.25;;;;;;;26.65;51.78;95896.81;5052781;28;20036;-69
2021/07/20 05:31:54;;;;;;;6.95;6.25;;;;;;;26.78;51.32;95896.22;5052758;28;20174;-69
2021/07/20 05:34:20;;;;;;;6.63;5.97;;;;;;;26.79;51.17;95900.56;5052779;28;20083;-70
2021/07/20 05:36:47;;;;;;;6.43;5.82;;;;;;;27.04;51.64;95907.66;5052804;28;20482;-70
2021/07/20 05:39:13;;;;;;;8.93;5.55;;;;;;;27.32;50.06;95912.50;5052683;28;20459;-69
2021/07/20 05:41:40;;;;;;;6.22;5.55;;;;;;;27.20;49.95;95907.56;5052680;28;20086;-70
2021/07/20 05:44:15;;;;;;;7.93;5.80;;;;;;;27.27;50.13;95904.97;5052430;28;20031;-69
2021/07/20 05:46:42;;;;;;;5.72;4.95;;;;;;;27.27;50.15;95906.84;5052544;28;20056;-70
2021/07/20 05:49:11;;;;;;;6.13;5.50;;;;;;;27.21;50.21;95905.72;5052658;28;20025;-69
2021/07/20 05:51:38;;;;;;;5.88;5.38;;;;;;;27.49;48.54;95911.38;5052512;28;20060;-68
2021/07/20 05:54:06;;;;;;;6.70;6.07;;;;;;;27.38;48.39;95914.47;5052300;28;20128;-70
2021/07/20 05:56:33;;;;;;;6.68;5.10;;;;;;;27.36;48.42;95924.56;5052405;28;20021;-70
2021/07/20 05:59:00;;;;;;;7.72;5.53;;;;;;;27.55;49.10;95915.19;5055613;28;20025;-70
2021/07/20 06:01:29;;;;;;;7.53;5.10;;;;;;;27.62;48.04;95918.81;5056325;28;20032;-69
2021/07/20 06:03:57;;;;;;;6.47;5.53;;;;;;;27.97;49.83;95928.25;5056209;28;20029;-68
2021/07/20 06:06:31;;;;;;;6.43;5.82;;;;;;;28.16;47.25;95926.88;5056165;28;20383;-69
2021/07/20 06:09:02;;;;;;;5.78;5.18;;;;;;;28.36;46.86;95916.41;5056036;28;20482;-70
2021/07/20 06:11:30;;;;;;;11.23;5.90;;;;;;;28.42;47.52;95920.25;5054803;28;20403;-70
2021/07/20 06:13:56;;;;;;;8.52;5.97;;;;;;;28.61;45.98;95926.03;5055991;28;20040;-69
2021/07/20 06:16:23;;;;;;;6.72;5.40;;;;;;;28.67;45.66;95925.31;5055917;28;20029;-70
2021/07/20 06:18:50;;;;;;;6.10;5.47;;;;;;;28.74;45.24;95923.53;5056026;28;20032;-70
2021/07/20 06:21:19;;;;;;;6.90;5.50;;;;;;;28.82;45.39;95922.59;5055760;28;20021;-70
2021/07/20 06:23:48;;;;;;;6.80;5.50;;;;;;;29.04;46.28;95921.81;5055672;28;20474;-70
2021/07/20 06:26:23;;;;;;;5.22;4.68;;;;;;;29.43;44.90;95927.81;5055710;28;20056;-70
2021/07/20 06:28:52;;;;;;;7.78;5.65;;;;;;;29.51;44.43;95914.19;5055896;28;20360;-70
2021/07/20 06:31:19;;;;;;;6.72;5.43;;;;;;;29.75;43.72;95920.22;5055583;28;20025;-69
2021/07/20 06:33:47;;;;;;;7.28;5.45;;;;;;;30.04;43.20;95912.97;5055568;28;20017;-69
2021/07/20 06:36:17;;;;;;;7.18;5.65;;;;;;;30.15;43.17;95916.97;5055588;28;20025;-69
2021/07/20 06:38:44;;;;;;;12.00;5.25;;;;;;;30.37;42.64;95919.63;5055563;28;20021;-70
2021/07/20 06:41:11;;;;;;;5.97;5.38;;;;;;;30.11;43.11;95921.09;5055484;28;20033;-69
2021/07/20 06:43:41;;;;;;;7.18;4.78;;;;;;;30.09;42.27;95929.38;5055315;28;20509;-70
2021/07/20 06:46:08;;;;;;;5.97;5.22;;;;;;;30.20;44.14;95929.88;5055385;28;20036;-70
2021/07/20 06:48:38;;;;;;;6.20;5.32;;;;;;;30.16;42.04;95926.75;5055439;28;20040;-70
2021/07/20 06:51:04;;;;;;;7.47;5.53;;;;;;;29.99;44.48;95932.44;5055435;28;20040;-71
2021/07/20 06:53:31;;;;;;;6.50;5.53;;;;;;;30.30;43.48;95933.06;5055010;28;20053;-70
2021/07/20 06:56:00;;;;;;;7.97;5.45;;;;;;;30.25;42.59;95930.13;5055088;28;20017;-70
2021/07/20 06:58:28;;;;;;;9.38;6.10;;;;;;;30.44;41.95;95920.47;5055147;28;20356;-70
2021/07/20 07:01:05;;;;;;;6.38;5.50;;;;;;;29.81;43.14;95923.97;5055130;28;20041;-70
2021/07/20 07:03:40;;;;;;;8.95;5.72;;;;;;;29.54;44.44;95926.44;5055073;28;20116;-69
2021/07/20 07:06:10;;;;;;;8.45;5.50;;;;;;;29.70;44.55;95926.19;5055125;28;20025;-70
2021/07/20 07:08:36;;;;;;;8.05;5.57;;;;;;;30.06;42.82;95924.38;5054867;28;20127;-70
2021/07/20 07:11:03;;;;;;;8.13;6.32;;;;;;;30.52;41.49;95925.69;5054477;28;20029;-70
2021/07/20 07:13:29;;;;;;;8.88;5.75;;;;;;;30.85;40.44;95926.09;5054728;28;20371;-70
2021/07/20 07:15:57;;;;;;;10.43;6.28;;;;;;;30.83;41.70;95922.75;5054826;28;20031;-72
2021/07/20 07:18:24;;;;;;;9.80;6.35;;;;;;;31.00;39.63;95918.66;5054917;28;20486;-71
2021/07/20 07:20:52;;;;;;;8.20;6.07;;;;;;;31.05;40.39;95909.09;5054691;28;20028;-72
2021/07/20 07:23:18;;;;;;;7.95;6.47;;;;;;;31.18;39.03;95905.63;5054578;28;20020;-71
2021/07/20 07:25:52;;;;;;;9.00;6.63;;;;;;;31.42;40.80;95919.59;5054692;28;20021;-70
2021/07/20 07:28:20;;;;;;;8.18;6.45;;;;;;;31.58;39.49;95916.50;5054765;28;20083;-71
2021/07/20 07:30:50;;;;;;;7.90;6.20;;;;;;;31.00;38.83;95921.34;5054511;28;20116;-72
2021/07/20 07:33:18;;;;;;;10.60;6.85;;;;;;;31.18;40.35;95919.13;5054499;28;20451;-72
2021/07/20 07:35:45;;;;;;;7.05;6.32;;;;;;;31.32;38.37;95911.84;5054370;28;20029;-71
2021/07/20 07:38:11;;;;;;;11.25;6.55;;;;;;;31.36;38.66;95910.47;5054372;28;20027;-72
2021/07/20 07:40:38;;;;;;;7.18;6.47;;;;;;;31.48;39.24;95911.47;5054431;28;20095;-72
2021/07/20 07:43:05;;;;;;;9.02;6.88;;;;;;;31.89;39.66;95923.13;5054293;28;20024;-72
2021/07/20 07:45:31;;;;;;;10.15;6.38;;;;;;;32.22;37.45;95921.44;5054122;28;20025;-70
2021/07/20 07:47:59;;;;;;;10.55;6.55;;;;;;;32.31;37.25;95919.34;5054226;28;20059;-70
2021/07/20 07:50:25;;;;;;;6.38;5.55;;;;;;;32.59;36.67;95922.84;5054175;28;20032;-70
2021/07/20 07:52:52;;;;;;;7.57;6.20;;;;;;;32.34;38.12;95915.38;5053965;28;20687;-71
2021/07/20 07:55:22;;;;;;;8.23;6.45;;;;;;;32.45;37.22;95922.84;5054086;28;20386;-72
2021/07/20 07:57:48;;;;;;;7.57;6.22;;;;;;;32.73;35.72;95916.31;5054023;28;20033;-72
2021/07/20 08:00:15;;;;;;;8.68;6.63;;;;;;;32.57;35.14;95912.22;5053889;28;20100;-71
2021/07/20 08:02:48;;;;;;;7.13;6.00;;;;;;;32.47;35.61;95915.34;5053955;28;20101;-73
2021/07/20 08:05:14;;;;;;;7.93;6.15;;;;;;;32.11;37.22;95917.50;5053944;28;20033;-72
2021/07/20 08:07:43;;;;;;;8.65;5.85;;;;;;;31.68;37.79;95910.66;5053760;28;20483;-71
2021/07/20 08:10:11;;;;;;;10.32;7.05;;;;;;;31.54;37.63;95909.00;5053792;28;20044;-72
2021/07/20 08:12:39;;;;;;;12.05;7.25;;;;;;;31.56;38.44;95910.47;5053679;28;20071;-71
2021/07/20 08:15:06;;;;;;;9.38;6.95;;;;;;;31.85;39.43;95910.25;5053557;28;20482;-72
2021/07/20 08:17:33;;;;;;;7.38;6.10;;;;;;;32.13;36.77;95912.75;5053822;28;20415;-70
2021/07/20 08:20:00;;;;;;;15.38;6.88;;;;;;;32.42;35.61;95911.63;5053696;28;20021;-70
2021/07/20 08:22:29;;;;;;;6.75;5.90;;;;;;;32.73;35.75;95910.91;5052760;28;20501;-70
2021/07/20 08:25:10;;;;;;;8.27;6.32;;;;;;;33.18;35.09;95920.09;5053546;28;20126;-72
2021/07/20 08:27:42;;;;;;;11.25;6.20;;;;;;;32.75;33.77;95908.81;5053628;28;20390;-71
2021/07/20 08:30:09;;;;;;;8.38;6.93;;;;;;;32.48;34.40;95908.91;5053529;28;20410;-70
2021/07/20 08:32:41;;;;;;;8.35;7.25;;;;;;;32.35;33.90;95920.56;5053525;28;20378;-71
2021/07/20 08:35:12;;;;;;;9.05;7.10;;;;;;;32.47;33.88;95915.34;5053316;28;20417;-74
2021/07/20 08:37:41;;;;;;;9.73;7.07;;;;;;;32.64;36.12;95913.03;5053423;28;20387;-72
2021/07/20 08:40:37;;;;;;;8.95;7.35;;;;;;;32.98;35.12;95918.28;5053165;28;20474;-70
2021/07/20 08:43:17;;;;;;;10.90;8.02;;;;;;;33.12;35.87;95912.81;5053441;28;20033;-73
2021/07/20 08:46:21;;;;;;;7.80;7.07;;;;;;;33.56;34.37;95907.53;5053179;28;20024;-71
2021/07/20 08:49:33;;;;;;;7.88;6.88;;;;;;;34.06;33.33;95907.72;5053241;28;20036;-73
2021/07/20 08:52:02;;;;;;;8.93;7.00;;;;;;;34.14;32.96;95905.63;5052907;28;20079;-73
2021/07/20 08:54:51;;;;;;;10.75;7.20;;;;;;;34.40;33.23;95905.56;5053136;28;20056;-72
2021/07/20 08:57:27;;;;;;;9.40;8.05;;;;;;;34.13;33.23;95901.22;5053128;28;20025;-71
2021/07/20 09:00:07;;;;;;;12.40;8.30;;;;;;;33.74;33.83;95901.34;5052985;28;20029;-71
2021/07/20 09:02:45;;;;;;;12.07;7.68;;;;;;;32.87;35.59;95908.97;5053082;28;20095;-73
2021/07/20 09:05:37;;;;;;;11.82;7.32;;;;;;;32.85;35.98;95910.22;5052998;28;20048;-70
2021/07/20 09:08:26;;;;;;;13.80;8.52;;;;;;;32.99;36.94;95913.72;5042276;28;20044;-72
2021/07/20 09:11:02;;;;;;;13.00;7.67;;;;;;;33.52;33.95;95906.28;5052882;28;20385;-72
2021/07/20 09:13:33;;;;;;;12.27;7.80;;;;;;;33.73;33.61;95902.41;5052995;28;20064;-71
2021/07/20 09:16:18;;;;;;;10.45;7.80;;;;;;;33.87;34.34;95899.56;5053087;28;20084;-72
2021/07/20 09:18:49;;;;;;;10.70;7.75;;;;;;;33.63;33.55;95900.22;5052927;28;20028;-71
2021/07/20 09:21:16;;;;;;;12.50;7.95;;;;;;;33.13;35.58;95896.34;5052912;28;20025;-72
2021/07/20 09:23:58;;;;;;;10.38;7.55;;;;;;;32.94;34.26;95900.81;5052691;28;20021;-73
2021/07/20 09:26:30;;;;;;;9.27;8.07;;;;;;;32.80;34.56;95896.53;5052829;28;20028;-72
2021/07/20 09:29:12;;;;;;;11.48;7.57;;;;;;;32.62;35.13;95892.63;5052955;28;20029;-73
2021/07/20 09:31:47;;;;;;;10.80;7.72;;;;;;;32.30;34.53;95890.66;5052885;28;20509;-72
2021/07/20 09:34:38;;;;;;;12.65;7.57;;;;;;;32.06;35.07;95892.16;5056537;28;20035;-73
2021/07/20 09:37:07;;;;;;;8.80;7.85;;;;;;;31.75;37.44;95889.03;5056678;28;20028;-70
2021/07/20 09:39:47;;;;;;;9.48;7.72;;;;;;;32.05;35.66;95887.78;5056520;28;20028;-72
2021/07/20 09:42:20;;;;;;;14.82;8.30;;;;;;;32.30;36.83;95893.34;5056558;28;20036;-71
2021/07/20 09:45:25;;;;;;;14.30;7.68;;;;;;;32.34;37.50;95885.63;5056522;28;20094;-71
2021/07/20 09:47:54;;;;;;;13.38;7.93;;;;;;;32.37;35.16;95886.03;5053428;28;20045;-72
2021/07/20 09:50:21;;;;;;;7.97;7.18;;;;;;;32.41;35.31;95883.72;5056528;28;20029;-72
2021/07/20 09:53:08;;;;;;;16.58;8.90;;;;;;;32.00;36.31;95883.03;5056071;28;20045;-73
2021/07/20 09:55:53;;;;;;;13.10;8.15;;;;;;;31.59;36.44;95880.31;5056359;28;20025;-71
2021/07/20 09:58:28;;;;;;;11.32;8.77;;;;;;;31.64;38.96;95879.69;5056292;28;20116;-70
2021/07/20 10:01:19;;;;;;;8.93;7.80;;;;;;;32.03;36.09;95877.19;5056219;28;20025;-69
2021/07/20 10:04:12;;;;;;;11.43;7.93;;;;;;;32.39;36.38;95877.72;5054861;28;20032;-73
2021/07/20 10:07:04;;;;;;;8.18;7.38;;;;;;;32.55;36.39;95872.88;5056368;28;20045;-70
2021/07/20 10:09:59;;;;;;;15.38;8.40;;;;;;;32.31;36.47;95869.81;5056148;28;20032;-71
2021/07/20 10:12:42;;;;;;;12.90;8.27;;;;;;;32.24;35.74;95865.25;5056206;28;20028;-72
2021/07/20 10:15:09;;;;;;;9.45;8.45;;;;;;;32.06;37.48;95863.25;5056063;28;20025;-70
2021/07/20 10:17:47;;;;;;;11.65;8.18;;;;;;;31.99;38.14;95873.25;5056020;28;20371;-71
2021/07/20 10:20:37;;;;;;;11.90;8.57;;;;;;;32.18;35.86;95868.00;5056114;28;20379;-71
2021/07/20 10:23:29;;;;;;;15.83;10.07;;;;;;;31.94;36.10;95860.38;5055816;28;20045;-70
2021/07/20 10:26:09;;;;;;;11.65;9.55;;;;;;;31.75;38.94;95862.84;5055771;28;20273;-69
2021/07/20 10:29:13;;;;;;;15.70;9.45;;;;;;;32.08;37.33;95863.84;5055760;28;20395;-71
2021/07/20 10:31:49;;;;;;;12.40;9.55;;;;;;;32.27;36.82;95867.53;5055188;28;20040;-70
2021/07/20 10:34:29;;;;;;;12.75;9.18;;;;;;;32.43;35.36;95856.47;5055865;28;20017;-73
2021/07/20 10:37:07;;;;;;;13.55;9.35;;;;;;;32.53;35.05;95855.00;5055450;28;20033;-70
2021/07/20 10:39:42;;;;;;;13.23;9.35;;;;;;;32.67;34.53;95862.22;5055564;28;20021;-70
2021/07/20 10:42:30;;;;;;;14.35;9.75;;;;;;;32.44;35.07;95856.25;5055534;28;20033;-72
2021/07/20 10:45:04;;;;;;;11.45;10.32;;;;;;;32.38;37.10;95851.69;5053991;28;20063;-71
2021/07/20 10:47:44;;;;;;;15.25;10.43;;;;;;;32.60;36.38;95846.84;5055345;28;20453;-72
2021/07/20 10:50:13;;;;;;;18.75;9.98;;;;;;;32.96;35.66;95843.75;5055377;28;20025;-71
2021/07/20 10:53:04;;;;;;;16.00;10.43;;;;;;;33.24;35.40;95837.13;5055051;28;20080;-71
2021/07/20 10:56:01;;;;;;;14.15;10.77;;;;;;;33.50;35.86;95832.53;5055204;28;20498;-71
2021/07/20 10:59:07;;;;;;;14.45;10.50;;;;;;;33.71;34.96;95838.63;5055296;28;20502;-71
2021/07/20 11:01:43;;;;;;;12.38;10.23;;;;;;;33.98;36.62;95836.47;5055101;28;20112;-73
2021/07/20 11:04:19;;;;;;;16.92;10.30;;;;;;;33.99;34.66;95829.19;5055146;28;20071;-70
2021/07/20 11:06:48;;;;;;;12.13;9.82;;;;;;;33.81;32.90;95828.09;5055256;28;20024;-71
2021/07/20 11:09:26;;;;;;;14.90;9.93;;;;;;;33.75;34.72;95821.72;5055078;28;20093;-71
2021/07/20 11:11:55;;;;;;;12.40;9.32;;;;;;;33.76;35.66;95817.94;5054893;28;20036;-72
2021/07/20 11:14:28;;;;;;;14.90;8.85;;;;;;;33.94;32.85;95824.41;5054758;28;20032;-72
2021/07/20 11:16:57;;;;;;;14.63;9.63;;;;;;;34.15;32.90;95816.91;5054838;28;20079;-70
2021/07/20 11:19:28;;;;;;;14.82;9.70;;;;;;;34.15;32.36;95817.75;5054751;28;20028;-72
2021/07/20 11:21:56;;;;;;;11.80;9.15;;;;;;;34.15;31.14;95808.78;5054847;28;20032;-71
2021/07/20 11:24:24;;;;;;;13.38;9.75;;;;;;;34.21;33.83;95807.88;5054747;28;20387;-70
2021/07/20 11:26:50;;;;;;;10.38;9.20;;;;;;;34.26;34.22;95809.91;5054683;28;20490;-71
2021/07/20 11:29:18;;;;;;;13.43;9.00;;;;;;;33.62;33.08;95814.50;5054571;28;20029;-73
2021/07/20 11:31:56;;;;;;;11.07;9.05;;;;;;;33.39;33.48;95815.13;5054515;28;20430;-73
2021/07/20 11:34:28;;;;;;;11.90;9.20;;;;;;;33.40;34.66;95824.91;5054684;28;20028;-69
2021/07/20 11:37:16;;;;;;;10.27;9.00;;;;;;;33.20;33.77;95820.47;5054492;28;20112;-73
2021/07/20 11:39:55;;;;;;;10.18;9.15;;;;;;;33.26;37.47;95811.47;5054321;28;20025;-70
2021/07/20 11:42:36;;;;;;;11.87;8.90;;;;;;;33.50;33.59;95813.56;5054369;28;20125;-72
2021/07/20 11:45:10;;;;;;;12.70;8.45;;;;;;;33.71;34.36;95809.63;5054388;28;20112;-69
2021/07/20 11:47:44;;;;;;;11.20;10.07;;;;;;;33.56;33.99;95812.69;5054209;28;20033;-70
2021/07/20 11:50:22;;;;;;;13.68;9.07;;;;;;;33.55;34.54;95810.19;5054277;28;20032;-69